createdAt,value
2022-11-20T00:00:48.975Z,17.47
2022-11-20T00:03:15.748Z,17.20
2022-11-20T00:05:42.292Z,16.53
2022-11-20T00:08:09.540Z,16.90
2022-11-20T00:10:37.672Z,16.93
2022-11-20T00:13:04.970Z,17.43
2022-11-20T00:15:31.686Z,16.00
2022-11-20T00:17:58.385Z,15.30
2022-11-20T00:20:25.223Z,14.93
2022-11-20T00:22:52.084Z,15.90
2022-11-20T00:25:18.679Z,16.57
2022-11-20T00:27:45.649Z,16.80
2022-11-20T00:30:15.054Z,14.70
2022-11-20T00:32:42.109Z,16.53
2022-11-20T00:35:08.975Z,15.67
2022-11-20T00:37:35.613Z,15.23
2022-11-20T00:40:03.037Z,15.50
2022-11-20T00:42:29.904Z,15.70
2022-11-20T00:44:56.535Z,15.63
2022-11-20T00:47:23.831Z,16.43
2022-11-20T00:49:50.466Z,15.13
2022-11-20T00:52:17.098Z,14.83
2022-11-20T00:54:57.395Z,14.50
2022-11-20T00:57:24.215Z,16.40
2022-11-20T00:59:53.999Z,15.30
2022-11-20T01:02:20.868Z,16.13
2022-11-20T01:04:48.534Z,16.97
2022-11-20T01:07:15.774Z,13.63
2022-11-20T01:09:42.572Z,14.93
2022-11-20T01:12:09.162Z,15.40
2022-11-20T01:14:38.627Z,16.00
2022-11-20T01:17:05.504Z,14.13
2022-11-20T01:19:32.290Z,15.63
2022-11-20T01:21:59.543Z,15.47
2022-11-20T01:24:26.504Z,12.53
2022-11-20T01:26:53.125Z,15.97
2022-11-20T01:29:21.922Z,15.37
2022-11-20T01:31:49.174Z,14.87
2022-11-20T01:34:17.932Z,15.00
2022-11-20T01:36:45.635Z,16.30
2022-11-20T01:39:15.581Z,16.20
2022-11-20T01:41:57.988Z,13.47
2022-11-20T01:44:57.352Z,16.70
2022-11-20T01:47:33.501Z,16.07
2022-11-20T01:50:05.156Z,16.17
2022-11-20T01:52:37.148Z,16.27
2022-11-20T01:55:09.483Z,15.53
2022-11-20T01:57:36.740Z,15.43
2022-11-20T02:00:08.123Z,16.93
2022-11-20T02:02:35.812Z,16.67
2022-11-20T02:05:12.523Z,15.67
2022-11-20T02:07:39.510Z,14.73
2022-11-20T02:10:07.506Z,14.57
2022-11-20T02:13:00.722Z,15.40
2022-11-20T02:15:30.267Z,16.07
2022-11-20T02:17:57.480Z,15.20
2022-11-20T02:20:24.245Z,14.77
2022-11-20T02:22:56.890Z,13.60
2022-11-20T02:25:25.602Z,15.17
2022-11-20T02:27:52.216Z,16.77
2022-11-20T02:30:19.145Z,16.37
2022-11-20T02:32:45.941Z,15.47
2022-11-20T02:35:41.150Z,12.87
2022-11-20T02:38:07.927Z,15.70
2022-11-20T02:40:35.289Z,15.90
2022-11-20T02:43:01.875Z,15.53
2022-11-20T02:45:28.491Z,15.40
2022-11-20T02:47:55.159Z,16.33
2022-11-20T02:50:21.731Z,15.93
2022-11-20T02:52:48.344Z,16.07
2022-11-20T02:55:15.259Z,16.13
2022-11-20T02:57:42.746Z,15.57
2022-11-20T03:00:10.690Z,15.53
2022-11-20T03:02:37.339Z,16.37
2022-11-20T03:05:04.369Z,15.80
2022-11-20T03:07:31.156Z,16.70
2022-11-20T03:09:57.778Z,15.27
2022-11-20T03:12:24.408Z,16.37
2022-11-20T03:14:54.531Z,16.10
2022-11-20T03:17:21.210Z,16.93
2022-11-20T03:19:47.816Z,17.50
2022-11-20T03:22:14.490Z,16.20
2022-11-20T03:24:41.085Z,16.23
2022-11-20T03:27:07.958Z,18.30
2022-11-20T03:29:35.832Z,17.53
2022-11-20T03:32:03.093Z,17.00
2022-11-20T03:34:29.677Z,16.30
2022-11-20T03:36:56.347Z,17.17
2022-11-20T03:39:23.278Z,16.00
2022-11-20T03:41:50.007Z,16.70
2022-11-20T03:44:16.555Z,16.60
2022-11-20T03:46:43.198Z,15.00
2022-11-20T03:49:10.786Z,15.80
2022-11-20T03:51:37.684Z,16.70
2022-11-20T03:54:07.269Z,17.47
2022-11-20T03:56:36.662Z,17.27
2022-11-20T03:59:04.102Z,15.47
2022-11-20T04:01:33.452Z,17.10
2022-11-20T04:04:00.732Z,16.13
2022-11-20T04:06:29.700Z,17.20
2022-11-20T04:08:57.254Z,18.03
2022-11-20T04:11:25.500Z,13.20
2022-11-20T04:13:54.426Z,16.37
2022-11-20T04:16:22.638Z,16.63
2022-11-20T04:18:52.687Z,17.00
2022-11-20T04:21:19.351Z,17.17
2022-11-20T04:23:47.156Z,16.60
2022-11-20T04:26:14.187Z,16.70
2022-11-20T04:28:41.560Z,18.00
2022-11-20T04:31:10.367Z,17.83
2022-11-20T04:33:38.113Z,16.07
2022-11-20T04:36:08.505Z,16.20
2022-11-20T04:38:35.160Z,15.93
2022-11-20T04:41:04.112Z,16.97
2022-11-20T04:43:31.314Z,16.03
2022-11-20T04:45:59.310Z,16.77
2022-11-20T04:48:27.051Z,18.47
2022-11-20T04:50:54.779Z,16.40
2022-11-20T04:53:21.738Z,17.40
2022-11-20T04:55:48.532Z,17.57
2022-11-20T04:58:16.298Z,19.00
2022-11-20T05:00:42.938Z,17.83
2022-11-20T05:03:09.979Z,16.87
2022-11-20T05:05:36.587Z,19.23
2022-11-20T05:08:03.429Z,17.60
2022-11-20T05:10:30.098Z,18.37
2022-11-20T05:12:58.087Z,17.30
2022-11-20T05:15:25.693Z,17.80
2022-11-20T05:17:53.596Z,18.30
2022-11-20T05:20:20.889Z,18.43
2022-11-20T05:22:47.473Z,17.17
2022-11-20T05:25:14.815Z,18.10
2022-11-20T05:27:41.462Z,17.30
2022-11-20T05:30:09.640Z,16.77
2022-11-20T05:32:36.880Z,16.37
2022-11-20T05:35:04.749Z,17.60
2022-11-20T05:37:31.471Z,18.20
2022-11-20T05:39:58.235Z,19.27
2022-11-20T05:42:33.573Z,19.10
2022-11-20T05:45:00.955Z,16.90
2022-11-20T05:47:28.354Z,18.27
2022-11-20T05:49:55.998Z,17.13
2022-11-20T05:52:22.594Z,18.13
2022-11-20T05:54:49.188Z,18.30
2022-11-20T05:57:16.794Z,17.40
2022-11-20T05:59:44.187Z,16.77
2022-11-20T06:02:10.829Z,18.70
2022-11-20T06:04:37.402Z,18.10
2022-11-20T06:07:06.015Z,17.50
2022-11-20T06:09:32.929Z,17.60
2022-11-20T06:11:59.552Z,17.93
2022-11-20T06:14:26.118Z,17.43
2022-11-20T06:16:52.736Z,18.80
2022-11-20T06:19:19.873Z,17.73
2022-11-20T06:21:48.868Z,16.53
2022-11-20T06:24:16.270Z,17.83
2022-11-20T06:26:42.933Z,18.90
2022-11-20T06:29:09.651Z,19.60
2022-11-20T06:31:37.962Z,17.40
2022-11-20T06:34:05.002Z,17.00
2022-11-20T06:36:31.911Z,15.80
2022-11-20T06:38:58.601Z,15.97
2022-11-20T06:41:26.115Z,17.77
2022-11-20T06:43:52.853Z,17.60
2022-11-20T06:46:21.001Z,18.73
2022-11-20T06:48:48.839Z,18.03
2022-11-20T06:51:15.561Z,18.10
2022-11-20T06:53:42.314Z,16.90
2022-11-20T06:56:08.984Z,18.80
2022-11-20T06:58:37.046Z,17.47
2022-11-20T07:01:05.844Z,18.97
2022-11-20T07:03:32.540Z,18.63
2022-11-20T07:06:00.697Z,17.20
2022-11-20T07:08:27.743Z,17.30
2022-11-20T07:10:58.362Z,17.20
2022-11-20T07:13:24.926Z,16.97
2022-11-20T07:15:52.153Z,18.07
2022-11-20T07:18:18.736Z,16.97
2022-11-20T07:20:45.372Z,18.97
2022-11-20T07:23:12.004Z,17.20
2022-11-20T07:25:39.018Z,16.77
2022-11-20T07:28:07.390Z,18.87
2022-11-20T07:30:34.105Z,17.70
2022-11-20T07:33:01.370Z,16.23
2022-11-20T07:35:28.009Z,17.63
2022-11-20T07:37:54.604Z,18.50
2022-11-20T07:40:21.928Z,18.73
2022-11-20T07:42:49.659Z,15.90
2022-11-20T07:45:16.425Z,16.27
2022-11-20T07:47:44.803Z,18.90
2022-11-20T07:50:13.049Z,17.43
2022-11-20T07:52:40.639Z,19.27
2022-11-20T07:55:11.437Z,17.23
2022-11-20T07:57:38.571Z,17.23
2022-11-20T08:00:09.101Z,17.57
2022-11-20T08:02:39.147Z,17.57
2022-11-20T08:05:10.064Z,17.30
2022-11-20T08:07:42.058Z,16.23
2022-11-20T08:10:12.370Z,15.53
2022-11-20T08:13:03.414Z,18.53
2022-11-20T08:15:31.020Z,17.77
2022-11-20T08:18:29.436Z,16.17
2022-11-20T08:20:53.934Z,16.87
2022-11-20T08:23:21.565Z,18.97
2022-11-20T08:25:51.262Z,16.97
2022-11-20T08:28:21.627Z,18.53
2022-11-20T08:30:50.077Z,17.23
2022-11-20T08:33:18.524Z,17.73
2022-11-20T08:35:45.176Z,17.03
2022-11-20T08:38:11.968Z,13.17
2022-11-20T08:40:39.588Z,17.83
2022-11-20T08:43:06.842Z,17.07
2022-11-20T08:45:35.252Z,16.23
2022-11-20T08:48:02.733Z,13.63
2022-11-20T08:50:31.828Z,16.40
2022-11-20T08:53:03.635Z,17.53
2022-11-20T08:55:30.302Z,17.10
2022-11-20T08:57:57.601Z,18.70
2022-11-20T09:00:24.641Z,18.53
2022-11-20T09:02:52.199Z,18.73
2022-11-20T09:05:19.052Z,18.07
2022-11-20T09:07:45.660Z,17.20
2022-11-20T09:10:27.872Z,17.70
2022-11-20T09:12:55.632Z,15.00
2022-11-20T09:15:24.030Z,17.77
2022-11-20T09:17:53.500Z,18.53
2022-11-20T09:20:20.484Z,20.20
2022-11-20T09:22:47.187Z,18.20
2022-11-20T09:25:13.891Z,18.33
2022-11-20T09:27:41.693Z,19.77
2022-11-20T09:30:10.914Z,16.73
2022-11-20T09:32:39.752Z,18.37
2022-11-20T09:35:07.062Z,14.30
2022-11-20T09:37:33.693Z,15.83
2022-11-20T09:40:00.669Z,17.37
2022-11-20T09:42:37.853Z,18.73
2022-11-20T09:45:22.470Z,15.57
2022-11-20T09:48:04.872Z,18.10
2022-11-20T09:50:34.032Z,17.83
2022-11-20T09:53:14.458Z,17.13
2022-11-20T09:55:41.424Z,18.77
2022-11-20T09:58:14.579Z,17.53
2022-11-20T10:00:41.223Z,17.43
2022-11-20T10:03:15.317Z,18.17
2022-11-20T10:05:45.741Z,17.47
2022-11-20T10:08:20.479Z,18.07
2022-11-20T10:10:53.634Z,17.73
2022-11-20T10:13:34.925Z,13.70
2022-11-20T10:16:15.992Z,16.37
2022-11-20T10:18:57.582Z,17.63
2022-11-20T10:21:33.112Z,16.60
2022-11-20T10:24:24.153Z,17.57
2022-11-20T10:26:59.320Z,16.43
2022-11-20T10:29:33.834Z,18.13
2022-11-20T10:32:03.782Z,18.30
2022-11-20T10:34:39.603Z,17.27
2022-11-20T10:37:13.569Z,17.57
2022-11-20T10:39:48.057Z,14.43
2022-11-20T10:42:18.932Z,17.13
2022-11-20T10:45:04.468Z,16.93
2022-11-20T10:47:33.025Z,11.93
2022-11-20T10:50:09.981Z,16.57
2022-11-20T10:52:48.770Z,16.53
2022-11-20T10:55:26.304Z,15.13
2022-11-20T10:57:57.210Z,12.70
2022-11-20T11:00:23.809Z,17.07
2022-11-20T11:02:53.332Z,17.17
2022-11-20T11:05:32.662Z,12.80
2022-11-20T11:07:59.916Z,16.97
2022-11-20T11:10:35.475Z,15.00
2022-11-20T11:13:02.085Z,16.60
2022-11-20T11:15:31.101Z,18.10
2022-11-20T11:17:58.098Z,15.27
2022-11-20T11:20:26.627Z,14.07
2022-11-20T11:22:55.416Z,17.33
2022-11-20T11:25:25.720Z,16.83
2022-11-20T11:27:53.538Z,14.63
2022-11-20T11:30:21.485Z,15.13
2022-11-20T11:32:48.901Z,15.10
2022-11-20T11:35:28.423Z,13.33
2022-11-20T11:38:04.865Z,13.80
2022-11-20T11:40:33.547Z,14.47
2022-11-20T11:43:02.937Z,17.83
2022-11-20T11:45:29.877Z,15.93
2022-11-20T11:47:58.952Z,15.77
2022-11-20T11:50:27.793Z,17.13
2022-11-20T11:53:13.850Z,15.80
2022-11-20T11:55:44.881Z,17.30
2022-11-20T11:58:20.704Z,13.17
2022-11-20T12:00:55.963Z,15.37
2022-11-20T12:03:27.891Z,15.67
2022-11-20T12:06:00.115Z,15.83
2022-11-20T12:08:32.361Z,16.67
2022-11-20T12:11:05.270Z,16.80
2022-11-20T12:13:40.459Z,17.10
2022-11-20T12:16:12.223Z,17.83
2022-11-20T12:18:39.687Z,17.30
2022-11-20T12:21:19.832Z,17.17
2022-11-20T12:23:57.099Z,16.17
2022-11-20T12:26:36.258Z,16.13
2022-11-20T12:29:14.767Z,14.30
2022-11-20T12:31:59.593Z,16.27
2022-11-20T12:34:43.014Z,16.67
2022-11-20T12:37:24.646Z,16.83
2022-11-20T12:39:55.022Z,15.90
2022-11-20T12:43:02.738Z,16.13
2022-11-20T12:45:51.218Z,16.10
2022-11-20T12:48:46.834Z,13.80
2022-11-20T12:51:37.493Z,14.63
2022-11-20T12:54:40.313Z,14.47
2022-11-20T12:57:15.282Z,14.17
2022-11-20T13:00:02.465Z,13.53
2022-11-20T13:02:38.318Z,12.77
2022-11-20T13:05:18.186Z,13.10
2022-11-20T13:07:46.860Z,14.23
2022-11-20T13:10:22.182Z,13.30
2022-11-20T13:12:55.491Z,13.67
2022-11-20T13:15:34.567Z,11.07
2022-11-20T13:18:03.432Z,12.10
2022-11-20T13:20:31.629Z,10.20
2022-11-20T13:22:59.178Z,10.00
2022-11-20T13:25:28.010Z,10.63
2022-11-20T13:27:55.799Z,10.57
2022-11-20T13:30:23.839Z,10.87
2022-11-20T13:32:53.426Z,9.73
2022-11-20T13:35:29.724Z,9.03
2022-11-20T13:38:05.817Z,10.37
2022-11-20T13:40:33.483Z,10.50
2022-11-20T13:43:11.320Z,10.27
2022-11-20T13:45:37.949Z,8.07
2022-11-20T13:48:19.118Z,10.37
2022-11-20T13:50:55.951Z,9.90
2022-11-20T13:53:45.085Z,10.37
2022-11-20T13:56:22.668Z,11.10
2022-11-20T13:59:04.804Z,9.33
2022-11-20T14:01:32.409Z,7.90
2022-11-20T14:04:05.978Z,7.77
2022-11-20T14:06:39.848Z,9.40
2022-11-20T14:09:11.427Z,9.20
2022-11-20T14:11:47.097Z,10.40
2022-11-20T14:14:16.615Z,10.23
2022-11-20T14:16:44.548Z,10.40
2022-11-20T14:19:26.318Z,11.50
2022-11-20T14:21:54.356Z,11.73
2022-11-20T14:24:22.985Z,11.00
2022-11-20T14:26:52.465Z,12.87
2022-11-20T14:29:21.943Z,10.27
2022-11-20T14:31:54.280Z,11.17
2022-11-20T14:34:25.252Z,12.73
2022-11-20T14:36:56.500Z,12.13
2022-11-20T14:39:27.017Z,9.47
2022-11-20T14:41:54.668Z,10.47
2022-11-20T14:44:24.693Z,10.63
2022-11-20T14:46:53.325Z,11.07
2022-11-20T14:49:20.557Z,11.43
2022-11-20T14:51:47.240Z,10.87
2022-11-20T14:54:16.879Z,11.80
2022-11-20T14:56:55.656Z,10.53
2022-11-20T14:59:24.798Z,10.87
2022-11-20T15:01:57.475Z,11.37
2022-11-20T15:04:24.278Z,8.53
2022-11-20T15:06:52.697Z,9.97
2022-11-20T15:09:19.366Z,10.20
2022-11-20T15:11:55.862Z,9.20
2022-11-20T15:14:24.505Z,10.73
2022-11-20T15:16:51.828Z,12.03
2022-11-20T15:19:23.543Z,5.23
2022-11-20T15:21:50.829Z,10.40
2022-11-20T15:24:17.992Z,11.03
2022-11-20T15:26:45.126Z,10.90
2022-11-20T15:29:13.141Z,10.47
2022-11-20T15:31:41.802Z,10.93
2022-11-20T15:34:12.230Z,10.07
2022-11-20T15:36:39.096Z,10.73
2022-11-20T15:39:07.358Z,11.50
2022-11-20T15:41:34.006Z,11.77
2022-11-20T15:44:00.662Z,11.63
2022-11-20T15:46:30.048Z,11.00
2022-11-20T15:49:00.329Z,11.53
2022-11-20T15:51:29.775Z,11.87
2022-11-20T15:53:57.242Z,10.63
2022-11-20T15:56:24.203Z,13.00
2022-11-20T15:58:50.828Z,11.50
2022-11-20T16:01:20.041Z,10.60
2022-11-20T16:03:47.089Z,13.27
2022-11-20T16:06:16.322Z,11.70
2022-11-20T16:08:42.961Z,11.67
2022-11-20T16:11:13.425Z,12.30
2022-11-20T16:13:58.374Z,12.07
2022-11-20T16:16:30.447Z,11.47
2022-11-20T16:18:57.606Z,11.57
2022-11-20T16:21:30.566Z,10.80
2022-11-20T16:23:58.186Z,12.93
2022-11-20T16:26:24.822Z,13.27
2022-11-20T16:28:51.447Z,12.23
2022-11-20T16:31:20.132Z,12.43
2022-11-20T16:33:50.729Z,12.13
2022-11-20T16:36:17.866Z,12.80
2022-11-20T16:38:45.619Z,11.90
2022-11-20T16:41:13.879Z,11.53
2022-11-20T16:43:46.082Z,11.37
2022-11-20T16:46:13.197Z,11.53
2022-11-20T16:48:39.766Z,12.03
2022-11-20T16:51:09.326Z,11.63
2022-11-20T16:53:36.611Z,13.33
2022-11-20T16:56:10.805Z,11.47
2022-11-20T16:58:37.451Z,11.50
2022-11-20T17:01:09.794Z,13.23
2022-11-20T17:03:37.662Z,12.80
2022-11-20T17:06:12.109Z,14.37
2022-11-20T17:08:38.873Z,12.87
2022-11-20T17:11:06.608Z,13.67
2022-11-20T17:13:39.557Z,12.43
2022-11-20T17:16:09.131Z,11.73
2022-11-20T17:18:36.046Z,12.23
2022-11-20T17:21:04.660Z,12.90
2022-11-20T17:23:31.784Z,12.20
2022-11-20T17:26:03.442Z,12.70
2022-11-20T17:28:31.184Z,12.43
2022-11-20T17:31:01.957Z,11.30
2022-11-20T17:33:28.622Z,13.73
2022-11-20T17:35:55.616Z,14.37
2022-11-20T17:38:22.808Z,13.00
2022-11-20T17:40:49.434Z,13.87
2022-11-20T17:43:16.136Z,14.50
2022-11-20T17:45:43.398Z,14.30
2022-11-20T17:48:20.584Z,13.97
2022-11-20T17:50:47.147Z,14.23
2022-11-20T17:53:13.834Z,13.03
2022-11-20T17:55:58.597Z,13.97
2022-11-20T17:58:28.623Z,14.87
2022-11-20T18:01:04.734Z,14.80
2022-11-20T18:03:32.186Z,13.10
2022-11-20T18:05:58.934Z,13.67
2022-11-20T18:08:28.411Z,13.67
2022-11-20T18:10:54.946Z,13.13
2022-11-20T18:13:47.493Z,12.77
2022-11-20T18:16:14.648Z,14.83
2022-11-20T18:18:42.741Z,12.93
2022-11-20T18:21:15.372Z,14.03
2022-11-20T18:23:42.010Z,12.67
2022-11-20T18:26:08.607Z,14.33
2022-11-20T18:28:45.331Z,13.13
2022-11-20T18:31:13.851Z,13.33
2022-11-20T18:33:48.948Z,13.13
2022-11-20T18:36:19.647Z,12.43
2022-11-20T18:39:12.771Z,12.77
2022-11-20T18:42:02.322Z,12.80
2022-11-20T18:44:56.409Z,13.20
2022-11-20T18:47:34.508Z,13.17
2022-11-20T18:50:06.677Z,12.70
2022-11-20T18:52:39.484Z,12.83
2022-11-20T18:55:08.754Z,13.00
2022-11-20T18:57:55.321Z,13.23
2022-11-20T19:00:25.773Z,13.07
2022-11-20T19:03:01.065Z,12.13
2022-11-20T19:05:36.527Z,10.93
2022-11-20T19:08:04.172Z,12.07
2022-11-20T19:10:31.437Z,13.20
2022-11-20T19:13:12.711Z,12.20
2022-11-20T19:15:48.736Z,12.10
2022-11-20T19:18:16.849Z,13.87
2022-11-20T19:20:53.274Z,12.73
2022-11-20T19:23:24.182Z,12.10
2022-11-20T19:25:59.223Z,14.37
2022-11-20T19:28:36.215Z,15.10
2022-11-20T19:31:31.083Z,12.57
2022-11-20T19:34:07.383Z,12.20
2022-11-20T19:36:57.924Z,14.43
2022-11-20T19:39:27.381Z,14.13
2022-11-20T19:41:55.229Z,14.70
2022-11-20T19:44:21.973Z,14.00
2022-11-20T19:46:50.413Z,13.00
2022-11-20T19:49:17.825Z,12.97
2022-11-20T19:51:52.451Z,14.57
2022-11-20T19:54:23.500Z,15.17
2022-11-20T19:56:58.809Z,13.00
2022-11-20T19:59:29.388Z,15.60
2022-11-20T20:02:03.027Z,14.13
2022-11-20T20:04:31.067Z,14.30
2022-11-20T20:07:00.598Z,15.73
2022-11-20T20:09:32.274Z,15.37
2022-11-20T20:11:58.897Z,14.70
2022-11-20T20:14:30.986Z,14.97
2022-11-20T20:17:00.495Z,15.03
2022-11-20T20:19:27.761Z,15.30
2022-11-20T20:21:55.746Z,16.20
2022-11-20T20:24:25.102Z,14.40
2022-11-20T20:26:58.202Z,15.23
2022-11-20T20:29:26.029Z,15.57
2022-11-20T20:31:53.774Z,15.10
2022-11-20T20:34:22.691Z,15.00
2022-11-20T20:36:49.472Z,14.97
2022-11-20T20:39:19.532Z,14.23
2022-11-20T20:41:49.695Z,15.27
2022-11-20T20:44:35.961Z,14.10
2022-11-20T20:47:12.202Z,14.70
2022-11-20T20:49:42.907Z,14.00
2022-11-20T20:52:10.695Z,13.57
2022-11-20T20:54:37.408Z,14.53
2022-11-20T20:57:05.655Z,14.17
2022-11-20T20:59:35.774Z,15.03
2022-11-20T21:02:02.504Z,16.57
2022-11-20T21:04:29.381Z,15.47
2022-11-20T21:06:56.089Z,15.50
2022-11-20T21:09:23.080Z,14.80
2022-11-20T21:11:50.524Z,15.23
2022-11-20T21:14:18.153Z,13.77
2022-11-20T21:16:44.844Z,15.67
2022-11-20T21:19:12.058Z,14.80
2022-11-20T21:21:56.964Z,14.07
2022-11-20T21:24:24.221Z,15.83
2022-11-20T21:26:51.579Z,16.37
2022-11-20T21:29:18.947Z,15.40
2022-11-20T21:31:45.783Z,15.67
2022-11-20T21:34:13.265Z,15.10
2022-11-20T21:36:39.988Z,15.33
2022-11-20T21:39:06.938Z,16.70
2022-11-20T21:41:45.231Z,15.63
2022-11-20T21:47:01.343Z,16.00
2022-11-20T21:49:28.435Z,15.97
2022-11-20T21:51:55.085Z,16.33
2022-11-20T21:54:22.045Z,16.93
2022-11-20T21:56:48.875Z,16.93
2022-11-20T21:59:15.571Z,16.20
2022-11-20T22:01:49.131Z,16.77
2022-11-20T22:04:16.552Z,16.27
2022-11-20T22:06:43.261Z,18.07
2022-11-20T22:09:10.369Z,19.73
2022-11-20T22:11:37.043Z,18.97
2022-11-20T22:14:21.937Z,18.00
2022-11-20T22:16:49.884Z,20.10
2022-11-20T22:19:18.395Z,19.07
2022-11-20T22:21:45.268Z,19.83
2022-11-20T22:24:13.173Z,19.90
2022-11-20T22:26:40.795Z,19.73
2022-11-20T22:29:11.835Z,20.90
2022-11-20T22:31:38.504Z,21.13
2022-11-20T22:34:05.172Z,20.23
2022-11-20T22:36:36.239Z,25.53
2022-11-20T22:39:03.931Z,27.43
2022-11-20T22:41:31.127Z,28.20
2022-11-20T22:43:59.088Z,20.47
2022-11-20T22:46:27.089Z,21.67
2022-11-20T22:48:55.453Z,20.23
2022-11-20T22:51:23.804Z,20.00
2022-11-20T22:53:51.667Z,20.30
2022-11-20T22:56:19.081Z,20.33
2022-11-20T22:58:47.444Z,19.57
2022-11-20T23:01:16.681Z,20.23
2022-11-20T23:03:45.059Z,21.43
2022-11-20T23:06:12.462Z,20.30
2022-11-20T23:08:40.826Z,21.23
2022-11-20T23:11:09.976Z,21.80
2022-11-20T23:13:37.097Z,21.57
2022-11-20T23:16:05.760Z,21.60
2022-11-20T23:18:34.509Z,22.93
2022-11-20T23:21:04.911Z,22.10
2022-11-20T23:23:31.525Z,23.03
2022-11-20T23:26:00.595Z,24.47
2022-11-20T23:28:28.440Z,25.87
2022-11-20T23:30:55.088Z,25.57
2022-11-20T23:33:21.866Z,22.83
2022-11-20T23:35:48.885Z,22.67
2022-11-20T23:38:15.582Z,23.43
2022-11-20T23:40:45.858Z,23.60
2022-11-20T23:43:15.123Z,22.10
2022-11-20T23:45:42.883Z,21.23
2022-11-20T23:48:09.698Z,22.37
2022-11-20T23:50:36.378Z,23.07
2022-11-20T23:53:03.068Z,21.30
2022-11-20T23:55:29.861Z,20.57
2022-11-20T23:57:56.909Z,22.03
